Time;durP1;ratioP1;P1;durP2;ratioP2;P2;SDS_P1;SDS_P2;PMS_P1;PMS_P2;Temp;Humidity;BMP_temperature;BMP_pressure;BME280_temperature;BME280_humidity;BME280_pressure;Samples;Min_cycle;Max_cycle;Signal;HPM_P1;HPM_P2
2022/05/03 00:00:35;;;;;;;5.20;4.70;;;16.70;70.70;;;17.19;47.32;98453.56;4984749;28;122906;-92
2022/05/03 00:03:24;;;;;;;4.07;3.67;;;16.60;71.50;;;17.17;47.28;98453.09;4989010;28;114371;-92
2022/05/03 00:05:54;;;;;;;4.47;3.80;;;16.60;70.90;;;17.18;47.46;98449.13;4974313;28;113979;-92
2022/05/03 00:08:38;;;;;;;5.53;4.47;;;16.60;71.10;;;17.17;47.44;98450.31;4977314;28;124805;-91
2022/05/03 00:11:20;;;;;;;4.90;4.40;;;16.60;71.10;;;17.15;47.39;98454.63;4989826;28;124017;-92
2022/05/03 00:14:07;;;;;;;3.70;3.40;;;16.60;71.20;;;17.10;47.62;98450.16;4993418;28;115427;-92
2022/05/03 00:16:35;;;;;;;3.70;3.40;;;16.50;71.20;;;17.08;47.62;98448.88;4974995;28;117694;-91
2022/05/03 00:19:07;;;;;;;3.97;3.63;;;16.50;71.40;;;17.05;47.72;98444.84;4973906;28;123360;-90
2022/05/03 00:21:38;;;;;;;4.83;4.00;;;16.50;71.50;;;17.04;47.64;98448.81;4988183;28;123714;-91
2022/05/03 00:24:06;;;;;;;4.17;3.60;;;16.50;71.60;;;17.03;47.84;98438.81;4973952;28;114422;-91
2022/05/03 00:26:34;;;;;;;3.90;3.50;;;16.50;71.80;;;17.02;47.87;98445.56;4976172;28;113648;-91
2022/05/03 00:29:01;;;;;;;4.40;4.00;;;16.40;72.60;;;16.99;47.82;98441.53;4975001;28;124320;-91
2022/05/03 00:31:29;;;;;;;4.63;4.23;;;16.40;72.00;;;16.97;47.83;98434.69;4973710;28;123779;-91
2022/05/03 00:33:57;;;;;;;4.40;4.00;;;16.40;72.10;;;16.97;48.10;98434.69;4993272;28;114875;-91
2022/05/03 00:36:24;;;;;;;5.73;4.30;;;16.40;72.20;;;16.95;47.94;98437.03;4992070;28;113899;-90
2022/05/03 00:38:52;;;;;;;3.70;3.40;;;16.40;72.60;;;16.95;48.25;98440.66;4973552;28;124187;-91
2022/05/03 00:41:47;;;;;;;4.43;3.83;;;16.40;72.60;;;16.94;48.00;98435.41;4975287;28;123688;-91
2022/05/03 00:44:55;;;;;;;4.40;4.00;;;16.40;72.60;;;16.91;48.31;98433.38;4990206;28;113861;-91
2022/05/03 00:47:42;;;;;;;4.47;4.03;;;16.30;72.70;;;16.89;48.38;98436.50;4993093;28;114739;-90
2022/05/03 00:50:28;;;;;;;4.10;3.70;;;16.30;72.90;;;16.86;48.53;98439.22;4991722;28;124017;-91
2022/05/03 00:53:17;;;;;;;5.87;4.00;;;16.30;73.00;;;16.85;48.24;98437.63;4978197;28;123797;-90
2022/05/03 00:56:46;;;;;;;4.83;4.33;;;16.30;73.10;;;16.81;48.36;98443.09;4973139;28;114098;-90
2022/05/03 00:59:31;;;;;;;4.47;3.97;;;16.30;73.30;;;16.81;48.30;98440.31;4978173;28;113814;-90
2022/05/03 01:02:05;;;;;;;4.90;4.40;;;16.20;73.30;;;16.79;48.46;98442.63;4974292;28;124106;-91
2022/05/03 01:04:57;;;;;;;5.00;4.33;;;16.20;73.40;;;16.77;48.67;98440.22;4974989;28;123633;-90
2022/05/03 01:07:29;;;;;;;4.37;3.97;;;16.20;73.40;;;16.75;48.74;98436.16;4974303;28;117125;-90
2022/05/03 01:10:14;;;;;;;4.50;4.10;;;16.10;73.50;;;16.73;48.99;98439.28;4990868;28;114930;-92
2022/05/03 01:13:02;;;;;;;3.97;3.47;;;16.10;73.50;;;16.71;48.57;98443.59;4974238;28;124187;-92
2022/05/03 01:15:44;;;;;;;4.67;4.27;;;16.10;73.60;;;16.66;48.60;98450.28;4971726;28;124432;-91
2022/05/03 01:18:58;;;;;;;4.60;3.90;;;16.10;73.70;;;16.61;48.65;98441.41;4975386;28;114714;-91
2022/05/03 01:22:09;;;;;;;5.40;4.33;;;16.10;73.70;;;16.56;48.83;98442.47;4990157;28;114166;-93
2022/05/03 01:24:54;;;;;;;4.20;3.90;;;16.00;73.80;;;16.55;48.81;98438.88;4988685;28;125081;-90
2022/05/03 01:28:00;;;;;;;4.00;3.60;;;16.00;74.00;;;16.51;48.87;98443.53;4990045;28;123806;-90
2022/05/03 01:30:30;;;;;;;4.73;4.33;;;16.00;74.00;;;16.50;49.00;98446.72;4976076;28;114528;-91
2022/05/03 01:33:08;;;;;;;4.37;3.97;;;15.90;74.10;;;16.48;49.03;98441.47;4989720;28;113972;-91
2022/05/03 01:35:39;;;;;;;4.20;3.77;;;15.90;74.20;;;16.47;48.84;98444.63;4975585;28;124128;-91
2022/05/03 01:38:09;;;;;;;4.77;4.27;;;15.90;74.30;;;16.44;49.13;98437.81;4975747;28;124081;-91
2022/05/03 01:41:12;;;;;;;4.60;4.20;;;15.90;74.40;;;16.40;49.06;98433.31;4977267;28;113523;-91
2022/05/03 01:44:27;;;;;;;5.27;4.43;;;15.80;74.30;;;16.37;49.35;98431.25;4978218;28;113838;-91
2022/05/03 01:47:24;;;;;;;5.00;4.47;;;15.80;74.60;;;16.32;49.20;98435.91;4975333;28;124737;-90
2022/05/03 01:50:20;;;;;;;3.90;3.60;;;15.80;74.70;;;16.30;49.33;98435.44;4994346;28;122810;-90
2022/05/03 01:52:53;;;;;;;4.80;4.37;;;15.70;74.70;;;16.27;49.45;98433.38;4977478;28;115345;-91
2022/05/03 01:55:48;;;;;;;4.73;4.27;;;15.70;74.90;;;16.25;49.37;98429.34;4980064;28;114093;-91
2022/05/03 01:58:42;;;;;;;4.30;3.90;;;15.70;75.00;;;16.22;49.57;98436.44;4974742;28;124565;-91
2022/05/03 02:01:27;;;;;;;5.13;4.63;;;15.70;75.20;;;16.18;49.59;98429.97;4991930;28;124398;-90
2022/05/03 02:04:19;;;;;;;5.00;4.10;;;15.60;75.20;;;16.14;50.06;98434.63;4991061;28;115027;-90
2022/05/03 02:07:19;;;;;;;4.33;3.93;;;15.60;75.40;;;16.12;49.55;98431.41;4979836;28;113790;-93
2022/05/03 02:09:58;;;;;;;4.27;3.87;;;15.50;75.50;;;16.09;49.81;98430.16;4978329;28;124296;-92
2022/05/03 02:12:26;;;;;;;4.60;4.10;;;15.50;75.60;;;16.06;49.79;98430.84;4976795;28;123838;-92
2022/05/03 02:15:02;;;;;;;3.83;3.50;;;15.50;75.60;;;16.05;49.94;98426.44;4975358;28;114231;-93
2022/05/03 02:18:10;;;;;;;4.63;4.07;;;15.50;75.80;;;16.02;49.80;98432.75;4975857;28;114149;-93
2022/05/03 02:21:15;;;;;;;4.67;4.20;;;15.50;75.90;;;15.97;49.85;98435.00;4992055;28;123868;-92
2022/05/03 02:24:09;;;;;;;4.80;4.40;;;15.40;75.90;;;15.93;49.89;98434.06;4993470;28;122926;-94
2022/05/03 02:26:50;;;;;;;5.67;4.43;;;15.40;76.00;;;15.90;50.16;98435.59;4993069;28;114655;-94
2022/05/03 02:29:33;;;;;;;4.30;3.90;;;15.30;76.00;;;15.87;50.32;98437.13;4975835;28;113054;-93
2022/05/03 02:32:06;;;;;;;5.00;4.30;;;15.30;76.10;;;15.85;50.27;98427.50;4994155;28;124424;-92
2022/05/03 02:34:43;;;;;;;4.77;4.07;;;15.30;76.30;;;15.82;50.28;98433.78;4977497;28;122863;-93
2022/05/03 02:37:25;;;;;;;5.20;4.70;;;15.30;76.40;;;15.78;50.39;98436.47;4992486;28;114311;-93
2022/05/03 02:40:03;;;;;;;4.97;4.47;;;15.20;76.40;;;15.73;50.52;98447.88;4975816;28;114190;-93
2022/05/03 02:42:31;;;;;;;4.97;4.47;;;15.20;76.50;;;15.71;50.59;98436.28;4990733;28;123890;-94
2022/05/03 02:45:01;;;;;;;4.60;4.20;;;15.20;76.80;;;15.67;50.48;98438.94;4975369;28;124782;-93
2022/05/03 02:47:33;;;;;;;5.10;4.33;;;15.10;76.80;;;15.67;50.73;98438.13;4991732;28;113810;-93
2022/05/03 02:50:20;;;;;;;5.10;4.60;;;15.10;76.90;;;15.63;50.82;98437.22;4978458;28;113779;-93
2022/05/03 02:52:55;;;;;;;4.60;4.10;;;15.10;77.10;;;15.59;51.05;98436.31;4991511;28;123927;-91
2022/05/03 02:55:51;;;;;;;5.03;4.40;;;15.10;77.40;;;15.55;51.00;98430.63;4976504;28;122707;-92
2022/05/03 02:58:53;;;;;;;4.37;3.97;;;15.00;77.40;;;15.53;51.14;98432.13;4976440;28;113966;-92
2022/05/03 03:01:57;;;;;;;4.47;3.87;;;15.00;77.60;;;15.47;51.14;98428.81;4995543;28;114403;-93
2022/05/03 03:04:51;;;;;;;5.03;4.57;;;14.90;78.30;;;15.42;51.26;98427.09;4976918;28;123865;-91
2022/05/03 03:07:19;;;;;;;5.60;4.10;;;14.90;77.90;;;15.36;51.43;98422.94;4978103;28;123092;-92
2022/05/03 03:10:20;;;;;;;4.67;4.27;;;14.80;77.90;;;15.32;51.55;98422.03;4992316;28;114327;-91
2022/05/03 03:13:46;;;;;;;4.53;4.13;;;14.80;78.10;;;15.24;51.47;98425.75;4977221;28;114076;-93
2022/05/03 03:16:14;;;;;;;6.70;4.70;;;14.80;78.20;;;15.20;51.76;98428.44;4977615;28;123008;-92
2022/05/03 03:18:43;;;;;;;4.37;3.97;;;14.70;78.40;;;15.18;51.77;98424.41;4991579;28;123865;-92
2022/05/03 03:21:13;;;;;;;5.53;4.97;;;14.70;78.60;;;15.18;51.90;98427.19;4975379;28;113655;-92
2022/05/03 03:23:41;;;;;;;5.40;4.90;;;14.70;78.90;;;15.20;51.94;98427.63;4979359;28;113995;-93
2022/05/03 03:26:10;;;;;;;5.73;5.23;;;14.60;78.90;;;15.18;51.99;98424.41;4974106;28;124154;-91
2022/05/03 03:28:37;;;;;;;4.97;4.47;;;14.60;79.00;;;15.19;52.04;98442.72;4975443;28;123925;-92
2022/05/03 03:31:07;;;;;;;5.43;4.50;;;14.60;79.10;;;15.16;51.95;98441.44;4978342;28;114402;-92
2022/05/03 03:33:38;;;;;;;4.47;4.07;;;14.60;79.10;;;15.17;51.98;98447.81;4977173;28;113170;-91
2022/05/03 03:36:07;;;;;;;4.80;4.40;;;14.60;79.20;;;15.13;51.72;98444.13;4990723;28;124103;-91
2022/05/03 03:38:40;;;;;;;4.67;4.27;;;14.60;79.30;;;15.14;51.72;98445.72;4975824;28;124342;-92
2022/05/03 03:41:08;;;;;;;5.80;5.27;;;14.50;79.10;;;15.09;51.77;98444.00;4976137;28;114309;-92
2022/05/03 03:43:36;;;;;;;5.73;5.17;;;14.50;79.20;;;15.07;51.97;98437.16;4976922;28;114013;-92
2022/05/03 03:46:02;;;;;;;5.60;4.30;;;14.50;79.30;;;15.07;51.84;98442.72;4981362;28;123932;-93
2022/05/03 03:48:29;;;;;;;5.50;5.00;;;14.50;79.40;;;15.06;51.82;98447.47;4991415;28;123750;-91
2022/05/03 03:50:57;;;;;;;5.60;4.80;;;14.50;79.50;;;15.07;51.86;98439.94;4993372;28;115261;-92
2022/05/03 03:53:24;;;;;;;6.00;5.20;;;14.50;79.70;;;15.06;52.03;98444.69;4990586;28;114971;-91
2022/05/03 03:55:51;;;;;;;5.97;5.40;;;14.50;79.80;;;15.06;52.22;98441.13;4992545;28;123976;-93
2022/05/03 03:58:18;;;;;;;5.90;5.30;;;14.40;79.90;;;15.03;52.27;98442.63;4975369;28;124273;-91
2022/05/03 04:00:49;;;;;;;6.00;5.40;;;14.40;80.00;;;15.01;52.46;98440.19;4990946;28;113631;-93
2022/05/03 04:03:16;;;;;;;6.77;6.07;;;14.40;80.10;;;14.97;52.56;98439.28;4990663;28;113865;-91
2022/05/03 04:05:46;;;;;;;5.43;4.90;;;14.40;80.30;;;14.94;52.60;98445.53;4990732;28;124121;-94
2022/05/03 04:08:12;;;;;;;6.07;5.17;;;14.40;80.40;;;14.90;52.55;98439.03;4976386;28;124457;-92
2022/05/03 04:10:39;;;;;;;6.37;5.63;;;14.30;80.40;;;14.86;52.77;98438.13;4986511;28;113903;-91
2022/05/03 04:13:06;;;;;;;7.63;5.67;;;14.30;80.60;;;14.84;52.97;98443.25;4973676;28;114143;-92
2022/05/03 04:15:33;;;;;;;6.00;5.10;;;14.30;80.70;;;14.82;53.01;98437.22;4972237;28;123999;-93
2022/05/03 04:18:06;;;;;;;6.90;5.57;;;14.30;80.90;;;14.79;53.05;98435.13;4976277;28;124370;-93
2022/05/03 04:20:34;;;;;;;6.47;5.00;;;14.20;81.00;;;14.74;52.90;98435.34;4976134;28;114842;-93
2022/05/03 04:23:01;;;;;;;5.80;5.20;;;14.20;81.10;;;14.75;53.38;98439.78;4975849;28;113957;-92
2022/05/03 04:25:28;;;;;;;6.63;5.47;;;14.20;81.30;;;14.77;53.43;98434.66;4975449;28;123921;-91
2022/05/03 04:27:54;;;;;;;5.50;5.00;;;14.20;81.50;;;14.76;53.20;98431.06;4973317;28;123831;-92
2022/05/03 04:30:21;;;;;;;5.40;4.90;;;14.10;81.40;;;14.76;53.20;98436.63;4992102;28;114412;-92
2022/05/03 04:32:48;;;;;;;6.07;5.47;;;14.20;81.60;;;14.78;53.11;98436.31;4979327;28;113998;-92
2022/05/03 04:35:14;;;;;;;6.13;4.90;;;14.20;81.70;;;14.79;53.12;98441.50;4996695;28;122454;-91
2022/05/03 04:37:41;;;;;;;6.17;5.30;;;14.20;81.80;;;14.81;53.18;98435.59;4974981;28;124239;-93
2022/05/03 04:40:09;;;;;;;5.10;4.60;;;14.20;81.90;;;14.82;53.06;98437.22;4985363;28;115214;-92
2022/05/03 04:42:36;;;;;;;6.27;5.60;;;14.20;81.90;;;14.84;53.28;98446.00;4984774;28;114711;-90
2022/05/03 04:45:03;;;;;;;5.90;5.30;;;14.20;82.10;;;14.86;53.25;98449.28;4976283;28;123763;-89
2022/05/03 04:47:29;;;;;;;5.70;4.90;;;14.20;82.10;;;14.89;53.00;98456.91;4977047;28;124019;-90
2022/05/03 04:49:56;;;;;;;8.93;5.60;;;14.20;82.20;;;14.92;53.14;98459.00;4986743;28;114330;-90
2022/05/03 04:52:22;;;;;;;7.37;5.80;;;14.30;82.30;;;14.95;53.28;98465.81;4990935;28;112840;-90
2022/05/03 04:54:49;;;;;;;6.40;5.13;;;14.20;82.20;;;14.95;53.11;98472.19;4975794;28;123991;-89
2022/05/03 04:57:16;;;;;;;5.97;5.37;;;14.30;82.30;;;14.96;53.11;98476.63;4969238;28;122998;-92
2022/05/03 04:59:42;;;;;;;7.20;5.40;;;14.30;82.30;;;14.98;53.11;98476.25;4970988;28;114450;-91
2022/05/03 05:02:09;;;;;;;6.10;5.50;;;14.30;82.20;;;14.98;52.90;98479.84;4972363;28;113419;-91
2022/05/03 05:04:35;;;;;;;7.20;6.13;;;14.30;82.20;;;14.98;52.81;98473.47;4965041;28;124013;-90
2022/05/03 05:07:02;;;;;;;8.10;5.90;;;14.30;82.10;;;14.99;53.05;98486.19;4972604;28;124127;-91
2022/05/03 05:09:29;;;;;;;7.27;5.53;;;14.30;82.10;;;14.99;52.86;98484.25;4970576;28;114560;-90
2022/05/03 05:11:55;;;;;;;7.33;6.57;;;14.30;82.20;;;14.99;52.92;98477.84;4971777;28;113349;-90
2022/05/03 05:14:22;;;;;;;7.03;6.33;;;14.30;82.10;;;14.99;52.78;98475.91;4969162;28;124619;-90
2022/05/03 05:16:49;;;;;;;7.67;5.83;;;14.30;82.10;;;15.02;52.73;98483.56;4970350;28;124211;-91
2022/05/03 05:19:17;;;;;;;7.60;6.20;;;14.40;82.40;;;15.02;52.91;98478.00;4968291;28;113215;-90
2022/05/03 05:21:43;;;;;;;8.13;6.90;;;14.30;82.30;;;15.03;52.87;98481.56;4991597;28;114183;-90
2022/05/03 05:24:11;;;;;;;8.30;6.90;;;14.40;82.50;;;15.07;53.13;98487.25;4987020;28;123354;-90
2022/05/03 05:26:39;;;;;;;8.53;6.20;;;14.40;82.40;;;15.12;52.86;98481.44;4986794;28;126101;-93
2022/05/03 05:29:05;;;;;;;6.90;6.20;;;14.40;82.70;;;15.16;53.10;98485.16;4977179;28;115645;-94
2022/05/03 05:31:31;;;;;;;6.00;5.13;;;14.50;83.00;;;15.21;53.24;98490.50;4970534;28;114788;-92
2022/05/03 05:33:58;;;;;;;8.80;6.93;;;14.50;83.10;;;15.27;53.51;98482.69;4980566;28;123567;-93
2022/05/03 05:36:25;;;;;;;8.27;6.70;;;14.50;83.30;;;15.28;53.38;98487.91;4979360;28;124264;-92
2022/05/03 05:38:51;;;;;;;7.60;6.80;;;14.60;83.40;;;15.32;53.39;98488.84;4975948;28;114787;-94
2022/05/03 05:41:18;;;;;;;6.27;5.67;;;14.60;83.50;;;15.38;53.33;98484.63;4975126;28;114713;-94
2022/05/03 05:43:47;;;;;;;7.00;6.10;;;14.60;83.50;;;15.41;53.20;98483.13;4976256;28;122236;-93
2022/05/03 05:46:14;;;;;;;7.10;6.33;;;14.70;83.60;;;15.46;53.26;98488.44;4978339;28;123994;-93
2022/05/03 05:48:41;;;;;;;7.17;6.47;;;14.70;83.60;;;15.50;53.48;98485.75;4978040;28;114257;-94
2022/05/03 05:51:07;;;;;;;7.07;6.37;;;14.80;83.70;;;15.54;53.42;98492.25;4974268;28;114757;-93
2022/05/03 05:53:34;;;;;;;7.60;6.47;;;14.80;83.70;;;15.58;53.40;98485.63;4974695;28;123439;-92
2022/05/03 05:56:03;;;;;;;7.77;6.53;;;14.90;83.70;;;15.63;53.14;98490.13;4976475;28;122753;-92
2022/05/03 05:58:29;;;;;;;7.00;6.23;;;14.90;83.70;;;15.66;53.05;98481.88;4988858;28;115017;-93
2022/05/03 06:00:56;;;;;;;6.30;5.80;;;15.00;83.70;;;15.73;53.17;98491.63;4972150;28;114073;-91
2022/05/03 06:03:23;;;;;;;7.93;6.70;;;15.00;83.70;;;15.77;53.13;98490.59;4987751;28;124174;-92
2022/05/03 06:05:51;;;;;;;8.73;7.57;;;15.10;83.80;;;15.80;53.18;98503.00;4972917;28;123931;-90
2022/05/03 06:08:17;;;;;;;8.73;7.80;;;15.10;83.80;;;15.83;53.34;98503.09;4972717;28;114562;-91
2022/05/03 06:10:45;;;;;;;13.10;8.57;;;15.10;84.00;;;15.88;53.43;98494.47;4976951;28;114213;-93
2022/05/03 06:13:13;;;;;;;10.47;8.80;;;15.20;84.30;;;15.93;53.41;98487.00;4977570;28;125304;-93
2022/05/03 06:15:40;;;;;;;10.23;8.70;;;15.20;84.40;;;15.97;53.40;98497.09;4975296;28;123543;-92
2022/05/03 06:18:11;;;;;;;12.03;9.73;;;15.30;84.50;;;15.98;53.18;98486.75;4988179;28;114355;-91
2022/05/03 06:20:38;;;;;;;10.23;9.13;;;15.30;84.30;;;16.02;53.25;98493.25;4990268;28;114906;-95
2022/05/03 06:23:06;;;;;;;11.20;8.00;;;15.30;84.20;;;16.11;53.36;98491.09;4978597;28;124068;-95
2022/05/03 06:25:32;;;;;;;9.63;8.00;;;15.40;84.40;;;16.22;53.10;98497.75;4989085;28;123198;-92
2022/05/03 06:27:59;;;;;;;7.50;6.60;;;15.50;84.40;;;16.33;52.97;98487.72;4979577;28;113733;-94
2022/05/03 06:30:25;;;;;;;9.33;7.73;;;15.60;84.60;;;16.49;52.93;98492.47;4981090;28;114081;-95
2022/05/03 06:32:52;;;;;;;12.30;10.00;;;15.70;84.50;;;16.53;52.90;98497.00;4977889;28;123434;-90
2022/05/03 06:35:19;;;;;;;12.17;9.20;;;15.70;84.30;;;16.57;52.66;98489.50;4974914;28;123874;-91
2022/05/03 06:37:46;;;;;;;9.87;8.77;;;15.80;84.10;;;16.66;52.61;98497.72;4978339;28;113361;-94
2022/05/03 06:40:12;;;;;;;9.83;8.37;;;15.90;84.00;;;16.76;52.62;98488.81;4977207;28;114889;-93
2022/05/03 06:42:40;;;;;;;10.90;9.20;;;16.00;83.90;;;16.86;52.24;98489.44;4987513;28;123418;-93
2022/05/03 06:45:08;;;;;;;10.50;9.40;;;16.10;83.90;;;16.94;51.88;98494.03;4976563;28;123002;-93
2022/05/03 06:47:35;;;;;;;12.93;9.73;;;16.20;83.70;;;17.04;51.83;98496.28;4983261;28;114088;-92
2022/05/03 06:50:02;;;;;;;10.87;9.40;;;16.30;83.40;;;17.10;51.47;98496.78;4978525;28;113452;-93
2022/05/03 06:52:30;;;;;;;14.07;10.80;;;16.40;83.20;;;17.14;51.58;98490.13;4993995;28;124628;-90
2022/05/03 06:54:57;;;;;;;11.87;9.67;;;16.40;83.00;;;17.19;51.47;98491.81;4975991;28;123884;-89
2022/05/03 06:57:23;;;;;;;13.90;9.77;;;16.50;82.90;;;17.28;51.20;98491.63;4977558;28;114320;-87
2022/05/03 06:59:50;;;;;;;10.33;8.00;;;16.50;82.70;;;17.38;51.27;98482.66;4989334;28;114067;-87
2022/05/03 07:02:16;;;;;;;9.20;8.30;;;16.60;82.70;;;17.50;51.07;98493.72;4975353;28;124005;-88
2022/05/03 07:04:44;;;;;;;9.03;7.13;;;16.80;82.60;;;17.62;50.79;98488.00;4976294;28;123874;-88
2022/05/03 07:07:11;;;;;;;9.77;7.87;;;16.90;82.60;;;17.77;50.49;98493.88;4995279;28;115547;-90
2022/05/03 07:09:38;;;;;;;8.73;7.40;;;17.00;82.40;;;17.83;50.44;98486.81;4978474;28;115099;-88
2022/05/03 07:12:06;;;;;;;9.03;7.40;;;17.10;82.20;;;17.91;50.06;98494.16;4975955;28;124116;-88
2022/05/03 07:14:33;;;;;;;8.33;7.53;;;17.10;81.80;;;18.01;50.16;98498.38;4973796;28;124025;-86
2022/05/03 07:17:00;;;;;;;7.37;6.30;;;17.20;81.80;;;18.08;49.90;98499.31;4977086;28;116039;-86
2022/05/03 07:24:56;;;;;;;8.47;7.67;;;17.50;81.40;;;18.38;49.21;98506.25;4980318;28;124825;-90
2022/05/03 07:27:23;;;;;;;8.53;6.67;;;17.60;81.00;;;18.44;49.37;98501.97;4977427;28;114053;-92
2022/05/03 07:29:49;;;;;;;6.90;6.20;;;17.60;80.90;;;18.54;49.18;98504.16;4977846;28;114265;-91
2022/05/03 07:32:16;;;;;;;7.97;6.73;;;17.70;80.80;;;18.63;48.96;98509.50;4976874;28;124266;-89
2022/05/03 07:34:42;;;;;;;8.80;6.83;;;17.80;80.50;;;18.71;48.82;98511.22;4976632;28;123876;-88
2022/05/03 07:37:09;;;;;;;9.13;7.70;;;17.90;80.20;;;18.73;48.46;98517.28;4978710;28;114454;-91
2022/05/03 07:39:36;;;;;;;8.00;7.03;;;18.00;79.90;;;18.75;48.59;98512.13;4974700;28;114750;-86
2022/05/03 07:42:02;;;;;;;7.23;6.50;;;18.00;79.70;;;18.78;48.09;98508.59;4976312;28;124514;-86
2022/05/03 07:44:29;;;;;;;7.90;6.67;;;18.10;79.40;;;18.82;48.24;98517.84;4978428;28;122810;-89
2022/05/03 07:46:57;;;;;;;11.00;7.23;;;18.10;79.30;;;18.87;47.80;98522.31;4976743;28;114203;-87
2022/05/03 07:49:23;;;;;;;7.73;6.93;;;18.20;78.80;;;18.88;47.78;98513.53;4976648;28;114603;-88
2022/05/03 07:51:50;;;;;;;7.10;5.87;;;18.20;78.60;;;18.94;47.81;98517.66;4978106;28;124082;-87
2022/05/03 07:54:16;;;;;;;6.10;5.43;;;18.30;78.70;;;19.05;47.66;98523.44;4990131;28;123762;-87
2022/05/03 07:56:43;;;;;;;6.00;5.40;;;18.30;78.60;;;19.13;47.28;98527.16;4975694;28;115053;-89
2022/05/03 07:59:10;;;;;;;5.57;5.07;;;18.40;78.40;;;19.19;47.35;98520.03;4975932;28;114343;-87
2022/05/03 08:01:39;;;;;;;5.50;4.73;;;18.40;78.40;;;19.23;47.37;98522.88;4977587;28;123786;-88
2022/05/03 08:04:07;;;;;;;7.63;5.40;;;18.50;78.10;;;19.28;47.11;98522.56;4974882;28;123909;-87
2022/05/03 08:06:35;;;;;;;6.40;5.80;;;18.60;78.00;;;19.24;46.87;98524.50;4969724;28;114201;-87
2022/05/03 08:09:03;;;;;;;6.50;5.27;;;18.60;77.30;;;19.22;46.93;98522.06;4971981;28;114291;-86
2022/05/03 08:11:30;;;;;;;6.20;5.60;;;18.60;77.50;;;19.21;46.92;98528.88;4990306;28;124146;-88
2022/05/03 08:13:56;;;;;;;6.57;5.83;;;18.60;77.10;;;19.17;46.66;98528.81;4978062;28;122716;-89
2022/05/03 08:16:43;;;;;;;6.50;5.83;;;18.60;76.60;;;19.15;46.81;98525.56;4975751;28;112939;-90
2022/05/03 08:19:10;;;;;;;6.20;5.33;;;18.60;76.80;;;19.17;46.78;98533.59;4927343;28;114141;-89
2022/05/03 08:21:39;;;;;;;6.07;5.43;;;16.40;74.60;;;19.14;46.61;98526.75;4927520;28;124054;-91
2022/05/03 08:24:06;;;;;;;5.40;4.50;;;18.50;77.00;;;19.12;46.52;98525.53;4911647;28;121978;-90
2022/05/03 08:26:33;;;;;;;4.37;3.97;;;18.50;76.00;;;19.13;46.38;98533.56;4906729;28;113514;-88
2022/05/03 08:29:01;;;;;;;4.83;3.43;;;18.50;76.00;;;19.21;46.28;98528.88;4923745;28;113651;-91
2022/05/03 08:31:27;;;;;;;5.43;4.93;;;18.60;76.10;;;19.28;45.60;98528.16;4922230;28;123660;-87
2022/05/03 08:33:54;;;;;;;4.70;4.13;;;18.70;75.40;;;19.31;45.84;98528.22;4922312;28;123587;-89
2022/05/03 08:36:21;;;;;;;5.00;4.50;;;18.70;75.30;;;19.37;45.40;98531.50;4921122;28;113145;-87
2022/05/03 08:44:30;;;;;;;5.50;4.97;;;18.70;74.60;;;19.42;45.23;98532.00;4916038;28;124898;-90
2022/05/03 08:46:58;;;;;;;4.80;4.20;;;18.80;74.40;;;19.47;45.15;98530.84;4929217;28;115419;-88
2022/05/03 08:50:03;;;;;;;4.60;4.20;;;18.90;74.60;;;19.57;45.24;98529.38;4927938;28;114835;-93
2022/05/03 08:52:39;;;;;;;4.03;3.63;;;18.90;74.60;;;19.68;45.16;98524.75;4939041;28;123719;-89
2022/05/03 08:55:06;;;;;;;4.33;3.93;;;19.00;74.60;;;19.77;44.85;98522.50;4928094;28;124091;-89
2022/05/03 08:57:33;;;;;;;6.70;5.40;;;19.10;74.50;;;19.87;44.62;98532.22;4981693;28;114394;-88
2022/05/03 09:00:05;;;;;;;7.63;6.40;;;19.20;74.20;;;19.92;44.10;98531.06;4979739;28;113963;-89
2022/05/03 09:02:33;;;;;;;8.83;6.47;;;19.20;73.50;;;19.96;44.14;98524.34;4976020;28;124019;-87
2022/05/03 09:05:01;;;;;;;6.13;5.53;;;19.30;73.00;;;20.02;43.75;98534.00;4978876;28;123933;-89
2022/05/03 09:07:28;;;;;;;9.63;5.57;;;19.40;72.90;;;20.06;43.35;98528.44;4990836;28;114256;-90
2022/05/03 09:09:55;;;;;;;7.03;5.10;;;19.40;72.40;;;20.08;43.27;98529.66;4993256;28;115960;-89
2022/05/03 09:12:31;;;;;;;5.70;4.93;;;19.50;72.10;;;20.09;43.42;98522.06;4993524;28;124682;-88
2022/05/03 09:15:01;;;;;;;5.87;4.50;;;19.50;71.70;;;20.13;43.19;98517.31;4991815;28;124072;-88
2022/05/03 09:17:44;;;;;;;5.93;5.23;;;19.50;71.70;;;20.14;42.77;98523.72;4974776;28;114392;-90
2022/05/03 09:26:20;;;;;;;5.70;5.00;;;19.60;71.00;;;20.28;42.56;98521.91;4991787;28;124887;-89
2022/05/03 09:28:52;;;;;;;6.60;5.63;;;19.70;70.40;;;20.33;42.09;98514.31;4976089;28;114392;-89
2022/05/03 09:31:46;;;;;;;4.47;3.97;;;19.80;69.90;;;20.38;42.29;98511.97;4976833;28;113990;-91
2022/05/03 09:34:26;;;;;;;3.80;3.50;;;19.80;69.90;;;20.47;42.27;98508.84;4987432;28;124176;-89
2022/05/03 09:36:58;;;;;;;5.20;3.77;;;19.90;70.00;;;20.58;41.99;98512.59;4992596;28;124092;-89
2022/05/03 09:39:34;;;;;;;4.53;4.13;;;19.90;69.60;;;20.67;41.03;98503.84;4970237;28;116025;-88
2022/05/03 09:42:19;;;;;;;6.17;3.67;;;20.00;68.20;;;20.68;40.11;98511.88;4979790;28;114900;-88
2022/05/03 09:44:52;;;;;;;3.97;3.10;;;20.10;67.50;;;20.69;40.12;98505.09;4979224;28;124382;-90
2022/05/03 09:47:24;;;;;;;4.70;3.73;;;20.10;66.90;;;20.72;40.24;98511.94;4977876;28;124297;-87
2022/05/03 09:49:50;;;;;;;4.70;3.73;;;20.10;66.40;;;20.72;39.83;98509.13;4977781;28;114265;-90
2022/05/03 09:52:35;;;;;;;3.90;3.03;;;20.20;66.10;;;20.72;39.97;98503.50;4979491;28;114256;-89
2022/05/03 09:55:07;;;;;;;5.40;3.90;;;20.20;66.10;;;20.73;40.16;98491.88;4993808;28;124644;-88
2022/05/03 09:57:37;;;;;;;2.80;2.50;;;20.20;66.20;;;20.79;40.13;98497.94;4978951;28;122767;-90
2022/05/03 10:00:08;;;;;;;3.13;2.83;;;20.20;66.40;;;20.85;40.24;98490.78;4976163;28;113875;-88
2022/05/03 10:02:37;;;;;;;4.73;3.20;;;20.30;66.20;;;20.90;39.72;98489.59;4996811;28;113951;-89
2022/05/03 10:05:04;;;;;;;3.20;2.90;;;20.30;65.40;;;20.92;39.47;98481.59;4990526;28;123887;-88
2022/05/03 10:07:32;;;;;;;5.63;3.27;;;20.40;65.10;;;20.94;39.42;98493.25;4976711;28;125613;-90
2022/05/03 10:09:58;;;;;;;3.10;2.80;;;20.40;64.90;;;20.98;39.60;98485.63;4988546;28;114234;-88
2022/05/03 10:12:25;;;;;;;6.07;3.97;;;20.40;65.10;;;21.04;39.35;98486.91;4978182;28;114445;-83
2022/05/03 10:14:51;;;;;;;5.70;3.67;;;20.50;64.60;;;21.07;38.86;98491.75;4992440;28;124319;-88
2022/05/03 10:20:46;;;;;;;3.43;2.77;;;20.50;63.70;;;21.10;39.03;98473.28;4977205;28;113958;-89
2022/05/03 10:23:36;;;;;;;3.10;2.80;;;20.60;63.80;;;21.13;38.80;98470.50;4963847;28;113962;-87
2022/05/03 10:26:10;;;;;;;5.03;3.00;;;20.60;63.80;;;21.16;39.01;98477.34;4983634;28;123518;-87
2022/05/03 10:29:08;;;;;;;3.33;3.00;;;20.60;63.90;;;21.19;39.27;98466.13;4975399;28;125492;-86
2022/05/03 10:31:56;;;;;;;5.77;3.70;;;20.70;64.00;;;21.24;39.24;98462.13;4985144;28;113311;-87
2022/05/03 10:34:53;;;;;;;3.90;3.00;;;20.70;63.90;;;21.28;39.33;98462.16;4982900;28;114689;-87
2022/05/03 10:37:29;;;;;;;4.03;3.63;;;20.80;64.10;;;21.34;39.01;98461.41;4979542;28;124301;-89
2022/05/03 10:39:58;;;;;;;5.03;3.40;;;20.80;64.20;;;21.42;39.18;98455.84;4979691;28;123800;-90
2022/05/03 10:42:30;;;;;;;3.77;3.43;;;20.90;63.90;;;21.46;39.17;98451.84;4974863;28;114672;-89
2022/05/03 10:45:11;;;;;;;3.27;2.97;;;20.90;63.80;;;21.53;39.22;98462.34;4977565;28;113860;-88
2022/05/03 10:47:49;;;;;;;3.30;3.00;;;21.00;64.00;;;21.58;38.42;98451.53;4975496;28;124811;-89
2022/05/03 10:50:15;;;;;;;3.00;2.67;;;21.00;62.90;;;21.63;38.66;98444.72;4978438;28;123941;-88
2022/05/03 10:53:05;;;;;;;3.80;2.87;;;21.10;63.10;;;21.68;38.45;98451.94;4995359;28;114063;-88
2022/05/03 10:55:35;;;;;;;4.30;3.73;;;21.10;62.50;;;21.70;37.83;98449.56;4980910;28;113336;-91
2022/05/03 10:58:28;;;;;;;3.67;3.33;;;21.20;61.70;;;21.71;37.90;98453.97;4979038;28;124672;-89
2022/05/03 11:01:13;;;;;;;3.77;3.47;;;21.20;61.80;;;21.76;37.83;98448.78;4978778;28;123976;-88